Terminal Aerodrome Forecast
Issued by NWS Bismarck, ND

Home | Current Version | Previous Version | Graphics & Text | Print | Product List | Glossary On
Versions: 1 2 3 4 5 6 7 8 9 10 11 12 13 14 15
000
FTUS43 KBIS 251135 AAC
TAFISN
TAF AMD
KISN 251135Z 2512/2612 18010KT P6SM BKN150
     FM251700 21009KT P6SM BKN150
     FM260100 25006KT P6SM BKN150=

USA.gov is the U.S. government's official web portal to all federal, state and local government web resources and services.